Time;durP1;ratioP1;P1;durP2;ratioP2;P2;SDS_P1;SDS_P2;PMS_P1;PMS_P2;Temp;Humidity;BMP_temperature;BMP_pressure;BME280_temperature;BME280_humidity;BME280_pressure;Samples;Min_cycle;Max_cycle;Signal;HPM_P1;HPM_P2
2020/12/11 00:00:09;;;;;;;23.58;15.38;;;1.80;92.40;;;;;;5014433;28;20030;-89
2020/12/11 00:02:35;;;;;;;25.42;15.85;;;1.80;92.40;;;;;;5016442;28;20056;-89
2020/12/11 00:05:05;;;;;;;25.48;15.75;;;1.80;92.40;;;;;;5030983;28;20025;-90
2020/12/11 00:07:35;;;;;;;26.67;16.20;;;1.70;92.40;;;;;;5016623;28;20462;-89
2020/12/11 00:10:03;;;;;;;23.70;14.45;;;1.70;92.40;;;;;;5035335;28;20045;-89
2020/12/11 00:12:29;;;;;;;24.33;15.30;;;1.70;92.40;;;;;;5040204;28;20025;-89
2020/12/11 00:14:55;;;;;;;22.42;14.27;;;1.80;92.40;;;;;;5031934;28;20026;-89
2020/12/11 00:17:20;;;;;;;26.83;17.00;;;1.70;92.40;;;;;;5031258;28;20037;-89
2020/12/11 00:19:46;;;;;;;24.25;15.15;;;1.80;92.40;;;;;;5030948;28;20025;-88
2020/12/11 00:22:21;;;;;;;25.75;16.45;;;1.80;92.40;;;;;;5017528;28;20034;-88
2020/12/11 00:24:47;;;;;;;21.80;14.23;;;1.80;92.40;;;;;;5022811;28;20050;-88
2020/12/11 00:27:13;;;;;;;22.45;14.43;;;1.80;92.50;;;;;;5036995;28;20030;-90
2020/12/11 00:29:39;;;;;;;24.17;14.90;;;1.80;92.40;;;;;;5017534;28;20029;-89
2020/12/11 00:32:05;;;;;;;25.27;16.17;;;1.80;92.40;;;;;;5033047;28;20458;-89
2020/12/11 00:34:31;;;;;;;24.75;16.27;;;1.80;92.40;;;;;;5033234;28;20032;-88
2020/12/11 00:36:57;;;;;;;24.48;15.30;;;1.70;92.40;;;;;;5049920;28;20022;-89
2020/12/11 00:39:23;;;;;;;22.50;15.38;;;1.80;92.40;;;;;;5049977;28;20026;-90
2020/12/11 00:41:49;;;;;;;26.55;17.35;;;1.80;92.30;;;;;;5033599;28;20428;-89
2020/12/11 00:44:15;;;;;;;25.77;16.23;;;1.80;92.30;;;;;;5033492;28;20019;-89
2020/12/11 00:46:40;;;;;;;24.30;15.90;;;1.80;92.30;;;;;;5041249;28;20033;-89
2020/12/11 00:49:06;;;;;;;25.67;16.33;;;1.80;92.30;;;;;;5017660;28;20029;-89
2020/12/11 00:51:35;;;;;;;24.48;16.20;;;1.80;92.30;;;;;;5017368;28;20030;-89
2020/12/11 00:54:00;;;;;;;24.15;15.32;;;1.80;92.40;;;;;;5018163;28;20034;-89
2020/12/11 00:56:26;;;;;;;22.42;14.10;;;1.80;92.40;;;;;;5026175;28;20102;-89
2020/12/11 00:58:52;;;;;;;25.27;16.38;;;1.90;92.40;;;;;;5003440;28;20084;-89
2020/12/11 01:01:17;;;;;;;25.27;15.02;;;1.90;92.30;;;;;;5017188;28;20021;-89
2020/12/11 01:03:44;;;;;;;28.08;17.30;;;1.90;92.30;;;;;;5011977;28;20026;-89
2020/12/11 01:06:12;;;;;;;24.30;16.15;;;1.90;92.20;;;;;;5034333;28;20077;-90
2020/12/11 01:08:37;;;;;;;27.23;17.38;;;1.90;92.20;;;;;;5033650;28;20026;-89
2020/12/11 01:11:03;;;;;;;27.40;16.65;;;1.90;92.20;;;;;;5034871;28;20047;-89
2020/12/11 01:13:29;;;;;;;27.00;16.70;;;1.90;92.20;;;;;;5029595;28;20030;-89
2020/12/11 01:15:54;;;;;;;25.45;17.00;;;1.90;92.20;;;;;;5041142;28;20044;-89
2020/12/11 01:18:20;;;;;;;24.95;16.23;;;1.90;92.10;;;;;;5037015;28;20028;-89
2020/12/11 01:20:46;;;;;;;27.30;16.63;;;1.90;92.20;;;;;;5023019;28;20025;-88
2020/12/11 01:23:12;;;;;;;26.15;16.23;;;1.90;92.20;;;;;;5049376;28;20065;-89
2020/12/11 01:25:37;;;;;;;24.73;16.35;;;1.90;92.20;;;;;;5033836;28;20029;-89
2020/12/11 01:28:04;;;;;;;28.08;17.17;;;1.90;92.20;;;;;;5041676;28;20128;-89
2020/12/11 01:30:31;;;;;;;27.70;16.05;;;1.90;92.10;;;;;;5011497;28;20033;-89
2020/12/11 01:32:56;;;;;;;25.13;15.15;;;1.90;92.20;;;;;;5032262;28;20113;-89
2020/12/11 01:35:22;;;;;;;26.13;16.58;;;1.90;92.20;;;;;;5035932;28;20124;-89
2020/12/11 01:37:48;;;;;;;26.75;16.40;;;2.00;92.10;;;;;;5024961;28;20029;-89
2020/12/11 01:40:14;;;;;;;27.90;18.10;;;1.90;92.10;;;;;;5031679;28;20108;-89
2020/12/11 01:42:41;;;;;;;27.50;17.42;;;1.90;92.00;;;;;;5043384;28;20032;-89
2020/12/11 01:45:07;;;;;;;28.95;16.80;;;1.90;92.10;;;;;;5035668;28;20712;-88
2020/12/11 01:47:39;;;;;;;29.08;18.20;;;1.80;92.00;;;;;;5011165;28;20057;-89
2020/12/11 01:50:08;;;;;;;25.35;16.40;;;1.80;92.00;;;;;;5033779;28;20028;-89
2020/12/11 01:52:34;;;;;;;27.90;17.30;;;1.90;92.10;;;;;;5032634;28;20029;-88
2020/12/11 01:55:00;;;;;;;24.67;15.38;;;1.90;92.10;;;;;;5031912;28;20121;-89
2020/12/11 01:57:47;;;;;;;27.23;16.92;;;1.80;92.20;;;;;;5027557;28;20116;-89
2020/12/11 02:00:15;;;;;;;26.13;15.80;;;1.90;92.40;;;;;;5035151;28;20028;-89
2020/12/11 02:02:45;;;;;;;27.73;16.60;;;1.90;92.20;;;;;;5035898;28;20017;-89
2020/12/11 02:05:11;;;;;;;28.38;17.75;;;1.90;92.20;;;;;;5035859;28;20017;-89
2020/12/11 02:07:38;;;;;;;27.25;16.85;;;1.90;92.10;;;;;;5052440;28;20018;-89
2020/12/11 02:10:05;;;;;;;27.75;16.85;;;1.90;92.10;;;;;;5019134;28;20033;-87
2020/12/11 02:12:33;;;;;;;27.60;17.42;;;1.90;92.10;;;;;;5005274;28;20040;-88
2020/12/11 02:15:02;;;;;;;28.05;15.98;;;1.90;92.10;;;;;;5019180;28;20187;-88
2020/12/11 02:17:27;;;;;;;26.38;16.08;;;1.90;92.10;;;;;;4996228;28;20034;-89
2020/12/11 02:19:54;;;;;;;26.77;16.45;;;1.80;92.10;;;;;;5045253;28;20089;-88
2020/12/11 02:22:20;;;;;;;25.52;15.75;;;1.90;92.20;;;;;;5022055;28;20056;-89
2020/12/11 02:24:46;;;;;;;26.17;16.30;;;1.90;92.20;;;;;;5021984;28;20549;-89
2020/12/11 02:27:12;;;;;;;28.02;16.35;;;2.00;92.20;;;;;;5013673;28;20504;-88
2020/12/11 02:29:37;;;;;;;26.33;16.42;;;1.90;92.10;;;;;;5011725;28;20021;-89
2020/12/11 02:32:03;;;;;;;28.67;18.20;;;1.90;92.10;;;;;;5030754;28;20033;-88
2020/12/11 02:34:29;;;;;;;26.15;16.42;;;1.90;92.10;;;;;;5013034;28;20072;-88
2020/12/11 02:37:04;;;;;;;26.63;15.95;;;1.90;92.10;;;;;;5023131;28;20107;-88
2020/12/11 02:39:30;;;;;;;24.23;14.82;;;1.90;92.10;;;;;;5000897;28;20132;-90
2020/12/11 02:41:55;;;;;;;31.35;18.50;;;2.00;92.10;;;;;;5014599;28;20104;-89
2020/12/11 02:44:21;;;;;;;22.80;15.18;;;2.00;92.00;;;;;;5044674;28;20465;-89
2020/12/11 02:46:47;;;;;;;27.40;16.98;;;1.90;92.10;;;;;;5027298;28;20465;-89
2020/12/11 02:49:13;;;;;;;29.65;17.08;;;2.00;92.00;;;;;;5025905;28;20041;-89
2020/12/11 02:51:38;;;;;;;27.45;16.73;;;1.90;92.00;;;;;;5026817;28;20031;-89
2020/12/11 02:54:04;;;;;;;27.30;17.65;;;1.90;92.00;;;;;;5028663;28;20029;-89
2020/12/11 02:56:29;;;;;;;25.27;15.68;;;1.90;91.90;;;;;;5050081;28;20042;-89
2020/12/11 02:58:55;;;;;;;25.48;16.00;;;1.90;92.00;;;;;;5036674;28;20029;-89
2020/12/11 03:01:21;;;;;;;24.33;14.77;;;1.90;92.00;;;;;;5022365;28;20035;-89
2020/12/11 03:03:46;;;;;;;25.73;15.80;;;1.90;92.00;;;;;;5038723;28;20032;-89
2020/12/11 03:06:12;;;;;;;24.95;16.30;;;1.90;92.00;;;;;;5011529;28;20039;-89
2020/12/11 03:08:38;;;;;;;23.60;13.93;;;1.90;92.00;;;;;;5049104;28;20032;-89
2020/12/11 03:11:03;;;;;;;30.60;18.45;;;1.90;92.00;;;;;;5034890;28;20087;-89
2020/12/11 03:13:29;;;;;;;25.05;16.65;;;1.90;91.80;;;;;;5031231;28;20022;-88
2020/12/11 03:15:55;;;;;;;28.38;17.45;;;1.90;92.00;;;;;;5053396;28;20024;-88
2020/12/11 03:18:21;;;;;;;23.38;14.75;;;1.90;91.90;;;;;;5038505;28;20037;-91
2020/12/11 03:20:48;;;;;;;25.02;16.30;;;1.90;92.00;;;;;;5032244;28;20798;-89
2020/12/11 03:23:14;;;;;;;23.20;15.30;;;1.90;91.90;;;;;;5023834;28;20537;-89
2020/12/11 03:25:40;;;;;;;23.15;14.68;;;1.90;91.90;;;;;;4995289;28;20061;-89
2020/12/11 03:28:08;;;;;;;27.67;16.88;;;1.90;92.00;;;;;;5010145;28;20620;-88
2020/12/11 03:30:34;;;;;;;25.67;16.42;;;1.90;91.90;;;;;;5004871;28;20087;-89
2020/12/11 03:32:59;;;;;;;24.50;15.45;;;1.90;91.90;;;;;;5018881;28;20021;-88
2020/12/11 03:35:25;;;;;;;23.42;14.95;;;1.90;92.00;;;;;;5006288;28;20029;-87
2020/12/11 03:37:51;;;;;;;25.45;15.05;;;1.90;91.90;;;;;;5029468;28;20371;-87
2020/12/11 03:40:16;;;;;;;24.67;14.43;;;1.90;91.90;;;;;;5028446;28;20026;-89
2020/12/11 03:42:42;;;;;;;24.30;14.73;;;1.90;91.90;;;;;;5027892;28;20040;-88
2020/12/11 03:45:08;;;;;;;21.60;12.80;;;1.90;91.90;;;;;;4989733;28;20374;-88
2020/12/11 03:47:34;;;;;;;21.90;13.43;;;2.00;92.00;;;;;;5023638;28;20030;-88
2020/12/11 03:49:59;;;;;;;22.48;14.18;;;2.00;92.00;;;;;;5015120;28;20117;-88
2020/12/11 03:52:29;;;;;;;21.75;13.32;;;2.00;92.00;;;;;;5013561;28;20553;-89
2020/12/11 03:54:55;;;;;;;20.00;13.43;;;2.00;91.90;;;;;;5011283;28;20534;-88
2020/12/11 03:57:21;;;;;;;26.13;15.32;;;2.00;91.90;;;;;;5007355;28;20042;-89
2020/12/11 03:59:47;;;;;;;20.75;12.95;;;2.00;91.80;;;;;;5015134;28;20155;-89
2020/12/11 04:02:13;;;;;;;27.02;17.40;;;1.90;91.90;;;;;;4980805;28;20491;-88
2020/12/11 04:04:39;;;;;;;25.00;15.95;;;1.80;91.70;;;;;;4998465;28;20510;-89
2020/12/11 04:07:05;;;;;;;23.88;15.35;;;1.80;91.80;;;;;;4995416;28;20034;-89
2020/12/11 04:09:31;;;;;;;21.20;13.45;;;1.80;91.90;;;;;;5012650;28;20117;-88
2020/12/11 04:11:56;;;;;;;23.08;13.85;;;1.90;91.90;;;;;;4965875;28;20554;-87
2020/12/11 04:14:22;;;;;;;23.55;14.85;;;1.90;91.90;;;;;;4999668;28;20106;-89
2020/12/11 04:16:51;;;;;;;22.00;13.93;;;1.90;91.90;;;;;;4997620;28;20072;-88
2020/12/11 04:19:17;;;;;;;23.85;15.00;;;1.90;91.90;;;;;;5013490;28;20040;-89
2020/12/11 04:21:53;;;;;;;22.00;14.52;;;1.90;91.90;;;;;;4993610;28;20038;-89
2020/12/11 04:24:21;;;;;;;24.75;15.25;;;1.80;91.80;;;;;;5006038;28;20037;-88
2020/12/11 04:26:47;;;;;;;25.75;17.23;;;1.90;91.90;;;;;;5009175;28;20474;-88
2020/12/11 04:29:13;;;;;;;24.65;15.57;;;1.90;91.90;;;;;;5050447;28;20030;-88
2020/12/11 04:31:39;;;;;;;26.17;15.73;;;1.90;91.90;;;;;;5038020;28;20025;-89
2020/12/11 04:34:05;;;;;;;26.08;17.05;;;1.90;91.90;;;;;;5038483;28;20112;-89
2020/12/11 04:36:31;;;;;;;24.70;15.95;;;1.90;91.80;;;;;;5017494;28;20084;-89
2020/12/11 04:38:57;;;;;;;25.42;16.25;;;1.80;92.00;;;;;;5050084;28;20379;-89
2020/12/11 04:41:27;;;;;;;25.15;15.98;;;1.90;92.00;;;;;;5036797;28;20120;-89
2020/12/11 04:43:56;;;;;;;24.37;15.67;;;1.90;92.00;;;;;;5037981;28;20021;-89
2020/12/11 04:46:28;;;;;;;27.13;17.67;;;1.90;92.00;;;;;;5043760;28;20029;-88
2020/12/11 04:48:55;;;;;;;32.72;19.55;;;1.90;92.00;;;;;;5053398;28;20040;-88
2020/12/11 04:51:30;;;;;;;27.33;16.70;;;1.80;91.90;;;;;;5054850;28;20009;-88
2020/12/11 04:53:58;;;;;;;26.65;16.92;;;1.90;92.00;;;;;;5049826;28;20022;-88
2020/12/11 04:56:24;;;;;;;25.67;16.23;;;1.90;92.00;;;;;;5051160;28;20075;-88
2020/12/11 04:58:52;;;;;;;27.35;18.13;;;1.90;92.00;;;;;;5033736;28;20102;-89
2020/12/11 05:01:32;;;;;;;27.35;17.23;;;1.90;92.00;;;;;;5049411;28;20038;-89
2020/12/11 05:04:00;;;;;;;26.13;16.95;;;1.90;92.10;;;;;;5014654;28;20064;-89
2020/12/11 05:06:26;;;;;;;26.55;17.60;;;1.90;92.10;;;;;;5039027;28;20026;-89
2020/12/11 05:09:09;;;;;;;27.08;17.02;;;1.90;92.00;;;;;;5048181;28;20026;-87
2020/12/11 05:11:34;;;;;;;24.63;15.95;;;1.90;92.00;;;;;;5049843;28;20025;-89
2020/12/11 05:14:02;;;;;;;26.10;16.33;;;1.90;92.10;;;;;;5015846;28;20131;-89
2020/12/11 05:16:28;;;;;;;28.80;18.23;;;1.90;92.10;;;;;;5033315;28;20473;-88
2020/12/11 05:19:04;;;;;;;25.65;15.85;;;1.90;92.10;;;;;;5032928;28;20037;-89
2020/12/11 05:21:31;;;;;;;25.88;16.92;;;1.90;92.10;;;;;;5034146;28;20025;-88
2020/12/11 05:24:05;;;;;;;26.23;16.48;;;1.90;92.20;;;;;;4995257;28;20821;-89
2020/12/11 05:26:33;;;;;;;28.02;16.98;;;1.90;92.10;;;;;;5020002;28;20104;-87
2020/12/11 05:29:00;;;;;;;27.98;18.02;;;1.90;92.10;;;;;;5020213;28;20030;-89
2020/12/11 05:31:26;;;;;;;25.77;15.60;;;1.90;92.20;;;;;;5004585;28;20030;-88
2020/12/11 05:34:14;;;;;;;25.15;15.82;;;1.90;92.20;;;;;;5004573;28;20075;-88
2020/12/11 05:36:52;;;;;;;27.58;16.92;;;2.00;92.20;;;;;;5014833;28;20030;-88
2020/12/11 05:39:30;;;;;;;27.15;16.02;;;2.00;92.20;;;;;;5014573;28;20030;-88
2020/12/11 05:41:56;;;;;;;27.83;17.13;;;2.00;92.10;;;;;;5003577;28;20057;-89
2020/12/11 05:44:32;;;;;;;26.67;16.65;;;2.00;92.20;;;;;;5013611;28;20446;-88
2020/12/11 05:47:14;;;;;;;25.42;16.20;;;2.00;92.20;;;;;;5012938;28;20128;-88
2020/12/11 05:49:40;;;;;;;26.90;16.92;;;2.00;92.20;;;;;;5008716;28;20025;-88
2020/12/11 05:52:10;;;;;;;28.02;17.50;;;2.00;92.20;;;;;;5011394;28;20033;-88
2020/12/11 05:54:44;;;;;;;27.17;17.33;;;2.10;92.20;;;;;;5021963;28;20204;-88
2020/12/11 05:57:11;;;;;;;28.15;17.17;;;2.10;92.20;;;;;;5022637;28;20033;-88
2020/12/11 05:59:37;;;;;;;26.58;17.08;;;2.10;92.20;;;;;;5022329;28;20102;-87
2020/12/11 06:02:03;;;;;;;25.52;16.73;;;2.10;92.20;;;;;;4970282;28;20027;-88
2020/12/11 06:04:29;;;;;;;23.58;15.35;;;2.10;92.30;;;;;;5012576;28;20030;-88
2020/12/11 06:06:57;;;;;;;26.45;17.30;;;2.10;92.30;;;;;;5012477;28;20041;-88
2020/12/11 06:09:34;;;;;;;28.08;16.63;;;2.10;92.20;;;;;;5013456;28;20028;-88
2020/12/11 06:12:02;;;;;;;25.73;15.57;;;2.10;92.30;;;;;;4996690;28;20545;-88
2020/12/11 06:14:42;;;;;;;25.30;15.63;;;2.20;92.30;;;;;;5010126;28;20030;-88
2020/12/11 06:17:10;;;;;;;25.05;15.82;;;2.20;92.20;;;;;;4997151;28;20034;-89
2020/12/11 06:19:42;;;;;;;24.75;16.08;;;2.10;92.30;;;;;;5004138;28;20047;-88
2020/12/11 06:22:07;;;;;;;25.20;16.35;;;2.20;92.30;;;;;;5008600;28;20030;-88
2020/12/11 06:24:34;;;;;;;25.58;16.02;;;2.20;92.30;;;;;;5012901;28;20017;-88
2020/12/11 06:27:02;;;;;;;28.48;18.05;;;2.20;92.30;;;;;;5026804;28;20042;-88
2020/12/11 06:29:32;;;;;;;25.58;16.10;;;2.20;92.10;;;;;;5002586;28;20109;-89
2020/12/11 06:32:02;;;;;;;26.50;16.95;;;2.20;92.20;;;;;;5020116;28;20033;-88
2020/12/11 06:34:28;;;;;;;24.73;15.60;;;2.30;92.20;;;;;;5021307;28;20028;-88
2020/12/11 06:36:55;;;;;;;23.17;14.88;;;2.30;92.20;;;;;;5021594;28;20125;-89
2020/12/11 06:39:40;;;;;;;28.48;18.42;;;2.30;92.20;;;;;;5001680;28;20022;-87
2020/12/11 06:42:08;;;;;;;23.85;16.40;;;2.30;92.20;;;;;;5014293;28;20442;-88
2020/12/11 06:44:35;;;;;;;24.58;16.02;;;2.30;92.20;;;;;;5007059;28;20461;-88
2020/12/11 06:47:05;;;;;;;23.52;15.02;;;2.30;92.10;;;;;;4999183;28;20091;-88
2020/12/11 06:49:31;;;;;;;27.23;17.42;;;2.40;92.10;;;;;;5013842;28;20429;-86
2020/12/11 06:52:02;;;;;;;26.73;16.83;;;2.40;92.10;;;;;;4992879;28;20019;-87
2020/12/11 06:54:28;;;;;;;25.98;16.45;;;2.40;92.00;;;;;;5013254;28;20018;-86
2020/12/11 06:56:59;;;;;;;24.50;16.17;;;2.40;92.00;;;;;;5030589;28;20033;-87
2020/12/11 06:59:29;;;;;;;;;;;2.50;92.10;;;;;;5011896;28;20128;-88
2020/12/11 07:02:09;;;;;;;25.33;14.63;;;2.40;92.10;;;;;;5017061;28;19909;-88
2020/12/11 07:04:46;;;;;;;22.77;15.35;;;2.40;92.10;;;;;;5033091;28;20382;-88
2020/12/11 07:07:13;;;;;;;22.20;14.93;;;2.40;92.10;;;;;;5015859;28;20091;-87
2020/12/11 07:09:39;;;;;;;22.45;14.45;;;2.50;92.10;;;;;;5007899;28;20049;-90
2020/12/11 07:12:05;;;;;;;25.05;15.82;;;2.50;92.10;;;;;;5012738;28;20026;-88
2020/12/11 07:14:30;;;;;;;21.85;15.02;;;2.50;92.00;;;;;;5010023;28;20044;-89
2020/12/11 07:16:56;;;;;;;22.33;14.63;;;2.50;92.10;;;;;;5015622;28;20141;-88
2020/12/11 07:19:22;;;;;;;24.65;15.65;;;2.50;92.00;;;;;;5031237;28;20048;-86
2020/12/11 07:21:49;;;;;;;24.25;15.23;;;2.50;92.00;;;;;;5015331;28;20038;-87
2020/12/11 07:24:15;;;;;;;23.10;15.40;;;2.50;92.00;;;;;;5009667;28;20124;-86
2020/12/11 07:26:41;;;;;;;24.00;15.73;;;2.50;91.90;;;;;;5017991;28;20056;-87
2020/12/11 07:29:10;;;;;;;23.30;15.00;;;2.60;92.10;;;;;;4980718;28;20030;-87
2020/12/11 07:31:42;;;;;;;23.20;14.25;;;2.60;91.90;;;;;;4998994;28;20026;-87
2020/12/11 07:34:18;;;;;;;23.75;14.93;;;2.60;91.90;;;;;;5003570;28;20105;-86
2020/12/11 07:36:48;;;;;;;21.70;13.82;;;2.60;91.90;;;;;;5007721;28;20072;-88
2020/12/11 07:39:18;;;;;;;22.93;14.80;;;2.60;91.80;;;;;;5001836;28;20030;-88
2020/12/11 07:41:45;;;;;;;23.13;14.75;;;2.60;91.80;;;;;;5008695;28;20028;-85
2020/12/11 07:44:28;;;;;;;19.73;13.35;;;2.60;91.90;;;;;;5019981;28;20033;-85
2020/12/11 07:46:59;;;;;;;35.15;16.70;;;2.60;91.80;;;;;;5010636;28;20060;-86
2020/12/11 07:49:38;;;;;;;22.20;14.88;;;2.60;91.70;;;;;;5030471;28;20053;-86
2020/12/11 07:52:04;;;;;;;19.35;12.50;;;2.70;91.70;;;;;;5015348;28;20014;-85
2020/12/11 07:54:34;;;;;;;24.73;15.30;;;2.70;91.70;;;;;;5031211;28;20461;-85
2020/12/11 07:57:20;;;;;;;21.27;14.30;;;2.70;91.70;;;;;;5030702;28;20033;-86
2020/12/11 08:00:00;;;;;;;21.15;14.35;;;2.70;91.60;;;;;;5030095;28;20034;-85
2020/12/11 08:02:26;;;;;;;20.98;13.77;;;2.70;91.60;;;;;;5001857;28;20026;-86
2020/12/11 08:04:53;;;;;;;24.92;16.58;;;2.70;91.70;;;;;;5030723;28;20022;-85
2020/12/11 08:07:37;;;;;;;21.63;13.63;;;2.70;91.60;;;;;;5012606;28;20110;-86
2020/12/11 08:10:14;;;;;;;21.42;14.10;;;2.70;91.60;;;;;;5013603;28;20034;-85
2020/12/11 08:12:40;;;;;;;22.48;14.70;;;2.70;91.60;;;;;;5014521;28;20029;-85
2020/12/11 08:15:07;;;;;;;23.15;15.30;;;2.70;91.70;;;;;;5028445;28;20489;-85
2020/12/11 08:17:33;;;;;;;20.88;14.40;;;2.70;91.50;;;;;;4994598;28;20049;-86
2020/12/11 08:20:01;;;;;;;20.08;13.35;;;2.70;91.30;;;;;;5029527;28;20044;-87
2020/12/11 08:22:35;;;;;;;23.80;15.15;;;2.70;91.50;;;;;;5004167;28;20033;-87
2020/12/11 08:25:16;;;;;;;21.70;14.35;;;2.70;91.50;;;;;;5014528;28;20132;-87
2020/12/11 08:27:41;;;;;;;23.13;14.57;;;2.80;91.60;;;;;;5028920;28;20061;-86
2020/12/11 08:30:12;;;;;;;20.27;13.48;;;2.80;91.50;;;;;;5024795;28;20034;-87
2020/12/11 08:32:37;;;;;;;23.10;14.13;;;2.80;91.50;;;;;;5048017;28;20029;-87
2020/12/11 08:35:13;;;;;;;21.95;14.63;;;2.80;91.50;;;;;;5032387;28;20033;-86
2020/12/11 08:37:58;;;;;;;20.75;14.10;;;2.90;91.50;;;;;;5033704;28;20021;-86
2020/12/11 08:40:26;;;;;;;20.17;13.98;;;2.90;91.50;;;;;;5031799;28;20116;-86
2020/12/11 08:43:32;;;;;;;20.58;14.18;;;2.90;91.50;;;;;;5031117;28;20036;-86
2020/12/11 08:51:00;;;;;;;20.70;13.90;;;2.90;91.50;;;;;;5034667;28;20486;-85
2020/12/11 08:53:28;;;;;;;23.30;15.63;;;2.90;91.50;;;;;;5026607;28;20036;-87
2020/12/11 08:55:54;;;;;;;19.45;13.80;;;2.90;91.30;;;;;;5032763;28;20428;-86
2020/12/11 08:58:19;;;;;;;21.67;14.48;;;2.90;91.50;;;;;;5032829;28;20030;-87
2020/12/11 09:00:45;;;;;;;19.23;13.55;;;3.00;91.50;;;;;;5037342;28;20477;-86
2020/12/11 09:03:13;;;;;;;20.77;13.82;;;3.00;91.50;;;;;;5033052;28;20129;-86
2020/12/11 09:05:39;;;;;;;22.13;14.95;;;3.00;91.70;;;;;;5004429;28;20496;-86
2020/12/11 09:08:04;;;;;;;24.15;15.98;;;3.00;91.50;;;;;;5048218;28;20029;-86
2020/12/11 09:10:30;;;;;;;20.73;13.75;;;3.10;91.50;;;;;;5024010;28;20029;-86
2020/12/11 09:12:56;;;;;;;21.40;13.40;;;3.10;91.50;;;;;;5033512;28;20029;-87
2020/12/11 09:15:22;;;;;;;20.50;14.52;;;3.10;91.60;;;;;;5035977;28;20029;-86
2020/12/11 09:17:48;;;;;;;21.25;14.05;;;3.10;91.60;;;;;;5043600;28;20060;-86
2020/12/11 09:20:14;;;;;;;24.00;15.13;;;3.10;91.60;;;;;;5017393;28;20025;-85
2020/12/11 09:22:39;;;;;;;19.50;13.45;;;3.10;91.70;;;;;;5028463;28;20021;-86
2020/12/11 09:25:05;;;;;;;21.42;14.50;;;3.10;91.80;;;;;;5032632;28;20466;-86
2020/12/11 09:27:32;;;;;;;19.58;13.70;;;3.10;91.90;;;;;;5023630;28;20058;-87
2020/12/11 09:35:37;;;;;;;21.00;14.15;;;3.20;92.10;;;;;;5015848;28;20096;-87
2020/12/11 09:38:03;;;;;;;20.50;14.27;;;3.20;92.10;;;;;;5018167;28;20401;-87
2020/12/11 09:45:50;;;;;;;19.70;13.52;;;3.30;92.20;;;;;;5020387;28;20056;-85
2020/12/11 09:48:28;;;;;;;20.40;13.10;;;3.30;92.20;;;;;;5011132;28;20084;-86
2020/12/11 09:51:04;;;;;;;23.02;15.15;;;3.30;92.20;;;;;;5029513;28;20363;-87
2020/12/11 09:56:01;;;;;;;24.13;15.45;;;3.40;92.30;;;;;;5028970;28;20091;-86
2020/12/11 09:58:27;;;;;;;22.88;15.40;;;3.40;92.30;;;;;;5010910;28;20061;-87
2020/12/11 10:00:52;;;;;;;22.08;14.45;;;3.40;92.30;;;;;;5013514;28;20061;-86
2020/12/11 10:03:22;;;;;;;21.00;14.80;;;3.40;92.20;;;;;;5029275;28;20029;-85
2020/12/11 10:05:48;;;;;;;22.45;14.30;;;3.40;92.30;;;;;;5000025;28;20022;-85
2020/12/11 10:08:13;;;;;;;22.67;14.65;;;3.50;92.30;;;;;;5018706;28;20057;-87
2020/12/11 10:10:39;;;;;;;24.35;15.65;;;3.50;92.40;;;;;;5024020;28;20030;-85
2020/12/11 10:13:05;;;;;;;26.55;15.68;;;3.50;92.20;;;;;;5028615;28;20037;-85
2020/12/11 10:15:32;;;;;;;21.17;14.13;;;3.50;92.20;;;;;;5025683;28;20022;-86
2020/12/11 10:17:58;;;;;;;21.52;13.73;;;3.50;92.20;;;;;;5028716;28;20014;-86
2020/12/11 10:20:24;;;;;;;18.65;13.10;;;3.60;92.30;;;;;;5026644;28;20026;-86
2020/12/11 10:22:54;;;;;;;22.77;15.32;;;3.60;92.30;;;;;;5038909;28;20049;-85
2020/12/11 10:25:20;;;;;;;23.45;16.15;;;3.60;92.20;;;;;;5033316;28;20037;-86
2020/12/11 10:27:47;;;;;;;23.25;15.15;;;3.70;92.20;;;;;;4970992;28;20127;-85
2020/12/11 10:30:13;;;;;;;21.83;14.70;;;3.70;92.30;;;;;;5011901;28;20034;-86
2020/12/11 10:32:39;;;;;;;20.95;14.15;;;3.70;92.20;;;;;;5012054;28;20045;-85
2020/12/11 10:35:05;;;;;;;21.33;14.02;;;3.70;92.20;;;;;;5021392;28;20478;-86
2020/12/11 10:37:32;;;;;;;20.20;13.52;;;3.70;92.20;;;;;;5000620;28;20041;-86
2020/12/11 10:39:58;;;;;;;21.25;13.73;;;3.80;92.20;;;;;;5012138;28;20457;-86
2020/12/11 10:42:25;;;;;;;19.45;13.57;;;3.80;92.20;;;;;;5012108;28;20064;-88
2020/12/11 10:44:50;;;;;;;19.73;13.48;;;3.80;92.20;;;;;;5012246;28;20030;-86
2020/12/11 10:47:16;;;;;;;22.50;14.65;;;3.80;92.20;;;;;;5012380;28;20552;-86
2020/12/11 10:49:42;;;;;;;20.33;14.82;;;3.90;92.20;;;;;;5016301;28;20030;-85
2020/12/11 10:52:08;;;;;;;19.95;13.63;;;3.90;92.10;;;;;;5014587;28;20022;-86
2020/12/11 10:54:33;;;;;;;21.98;14.25;;;3.90;92.20;;;;;;5012354;28;20080;-87
2020/12/11 10:56:59;;;;;;;22.27;14.75;;;3.90;92.20;;;;;;5012143;28;20125;-87
2020/12/11 10:59:25;;;;;;;22.35;15.40;;;3.90;92.30;;;;;;5024152;28;20037;-88
2020/12/11 11:01:51;;;;;;;24.05;16.13;;;3.90;92.40;;;;;;5011715;28;20030;-87
2020/12/11 11:04:17;;;;;;;22.00;14.52;;;3.90;92.50;;;;;;5029066;28;20030;-87
2020/12/11 11:06:52;;;;;;;23.92;15.60;;;3.90;92.50;;;;;;5011719;28;20025;-85
2020/12/11 11:11:54;;;;;;;21.83;15.32;;;4.00;92.60;;;;;;5006900;28;20030;-89
2020/12/11 11:17:27;;;;;;;23.20;15.43;;;4.00;92.80;;;;;;5012276;28;20034;-88
2020/12/11 11:27:36;;;;;;;21.42;13.38;;;4.10;92.90;;;;;;5014678;28;20133;-89
2020/12/11 11:30:04;;;;;;;26.63;16.73;;;4.10;92.80;;;;;;5031061;28;20116;-86
2020/12/11 11:32:29;;;;;;;22.80;14.50;;;4.20;93.00;;;;;;5023950;28;20029;-88
2020/12/11 11:34:55;;;;;;;23.90;16.00;;;4.10;93.00;;;;;;5026625;28;20030;-91
2020/12/11 11:37:23;;;;;;;26.33;17.90;;;4.20;93.00;;;;;;5023794;28;20884;-89
2020/12/11 11:39:52;;;;;;;27.58;17.88;;;4.10;93.10;;;;;;5026824;28;20034;-91
2020/12/11 11:42:18;;;;;;;24.73;17.17;;;4.10;93.20;;;;;;5016845;28;20041;-90
2020/12/11 11:47:12;;;;;;;25.88;16.20;;;4.10;93.20;;;;;;5016640;28;20141;-91
2020/12/11 11:52:19;;;;;;;24.90;15.70;;;4.10;93.30;;;;;;5031538;28;20030;-92
2020/12/11 11:54:48;;;;;;;26.88;17.75;;;4.20;93.30;;;;;;5030053;28;20804;-90
2020/12/11 11:57:16;;;;;;;26.88;16.88;;;4.20;93.30;;;;;;5030769;28;20018;-89
2020/12/11 11:59:45;;;;;;;27.13;16.38;;;4.20;93.40;;;;;;5030548;28;20034;-90
2020/12/11 12:02:11;;;;;;;30.52;17.98;;;4.20;93.40;;;;;;5031077;28;20553;-89
2020/12/11 12:04:37;;;;;;;25.42;16.95;;;4.20;93.50;;;;;;5028255;28;20041;-89
2020/12/11 12:07:05;;;;;;;21.90;15.02;;;4.20;93.60;;;;;;5029015;28;20034;-91
2020/12/11 12:09:31;;;;;;;25.17;16.27;;;4.20;93.60;;;;;;5031782;28;20039;-91
2020/12/11 12:12:00;;;;;;;25.55;15.52;;;4.20;93.50;;;;;;5034005;28;20038;-90
2020/12/11 12:14:25;;;;;;;24.73;15.52;;;4.20;93.60;;;;;;5032405;28;20018;-90
2020/12/11 12:16:55;;;;;;;25.02;15.73;;;4.30;93.70;;;;;;5032918;28;20025;-91
2020/12/11 12:19:36;;;;;;;25.05;16.35;;;4.30;93.60;;;;;;5047513;28;20014;-89
2020/12/11 12:27:35;;;;;;;24.17;15.15;;;4.40;93.60;;;;;;5049293;28;20459;-89
2020/12/11 12:30:01;;;;;;;24.10;15.23;;;4.40;93.60;;;;;;5036065;28;20034;-90
2020/12/11 12:32:30;;;;;;;20.83;14.82;;;4.40;93.60;;;;;;5031676;28;20366;-86
2020/12/11 12:34:58;;;;;;;28.63;17.67;;;4.40;93.70;;;;;;5014434;28;20029;-86
2020/12/11 12:37:36;;;;;;;25.35;15.25;;;4.50;93.70;;;;;;5035005;28;20029;-88
2020/12/11 12:45:13;;;;;;;23.10;15.65;;;4.50;93.70;;;;;;5036724;28;20029;-87
2020/12/11 12:47:40;;;;;;;27.60;16.83;;;4.50;93.70;;;;;;5043738;28;20044;-86
2020/12/11 12:50:08;;;;;;;21.27;14.55;;;4.60;93.80;;;;;;5032763;28;20021;-87
2020/12/11 12:52:37;;;;;;;20.45;12.70;;;4.60;93.70;;;;;;5037086;28;20060;-86
2020/12/11 12:55:04;;;;;;;26.33;16.23;;;4.60;93.70;;;;;;5028350;28;20533;-87
2020/12/11 12:57:38;;;;;;;21.15;13.95;;;4.50;93.70;;;;;;5028125;28;20033;-86
2020/12/11 13:00:16;;;;;;;22.48;14.05;;;4.60;93.80;;;;;;5026694;28;20064;-87
2020/12/11 13:05:43;;;;;;;22.05;14.25;;;4.60;93.80;;;;;;5005036;28;20037;-87
2020/12/11 13:08:08;;;;;;;24.17;15.32;;;4.60;93.80;;;;;;5047722;28;20049;-88
2020/12/11 13:10:34;;;;;;;22.15;13.75;;;4.60;93.80;;;;;;5031342;28;20087;-87
2020/12/11 13:13:06;;;;;;;20.20;14.00;;;4.60;93.90;;;;;;5043619;28;20029;-86
2020/12/11 13:15:32;;;;;;;20.25;12.82;;;4.60;93.80;;;;;;5036038;28;20032;-87
2020/12/11 13:17:58;;;;;;;21.45;14.73;;;4.70;93.80;;;;;;5034375;28;20077;-86
2020/12/11 13:20:29;;;;;;;24.30;15.85;;;4.70;93.80;;;;;;5026651;28;20054;-86
2020/12/11 13:25:49;;;;;;;22.00;14.52;;;4.70;94.00;;;;;;5045763;28;20064;-86
2020/12/11 13:28:15;;;;;;;20.27;13.57;;;4.70;93.80;;;;;;5033042;28;20379;-86
2020/12/11 13:30:41;;;;;;;20.88;12.82;;;4.70;93.90;;;;;;5029017;28;20152;-87
2020/12/11 13:33:06;;;;;;;17.15;12.00;;;4.80;93.90;;;;;;5026981;28;20084;-88
2020/12/11 13:35:32;;;;;;;16.70;11.00;;;4.80;93.90;;;;;;5037423;28;20124;-86